Track Ехтанигов Темир

Time Latitude Longitude Accuracy (66% radius in meters) Altitude (meters) Speed (km/hour) Bearing (degrees) Battery (%) GPS flag
07:07:39 57.205194 60.116880 0 0 0 0 1 delete
07:07:38 57.205197 60.116843 0 0 0 0 1 delete
07:07:37 57.205200 60.116804 0 0 0 0 1 delete
07:07:36 57.205202 60.116764 0 0 0 0 1 delete
07:07:35 57.205200 60.116725 0 0 0 0 1 delete
07:07:34 57.205201 60.116689 0 0 0 0 1 delete
07:07:33 57.205201 60.116654 0 0 0 0 1 delete
07:07:32 57.205200 60.116617 0 0 0 0 1 delete
07:07:31 57.205199 60.116580 0 0 0 0 1 delete
07:07:30 57.205200 60.116539 0 0 0 0 1 delete
07:07:29 57.205200 60.116499 0 0 0 0 1 delete
07:07:28 57.205201 60.116459 0 0 0 0 1 delete
07:07:27 57.205201 60.116420 0 0 0 0 1 delete
07:07:26 57.205202 60.116383 0 0 0 0 1 delete
07:07:25 57.205203 60.116344 0 0 0 0 1 delete
07:07:24 57.205202 60.116305 0 0 0 0 1 delete
07:07:23 57.205202 60.116262 0 0 0 0 1 delete
07:07:22 57.205203 60.116219 0 0 0 0 1 delete
07:07:21 57.205204 60.116173 0 0 0 0 1 delete
07:07:20 57.205203 60.116129 0 0 0 0 1 delete
07:07:19 57.205202 60.116081 0 0 0 0 1 delete
07:07:18 57.205201 60.116033 0 0 0 0 1 delete
07:07:17 57.205204 60.115982 0 0 0 0 1 delete
07:07:16 57.205208 60.115930 0 0 0 0 1 delete
07:07:15 57.205213 60.115877 0 0 0 0 1 delete
07:07:14 57.205221 60.115823 0 0 0 0 1 delete
07:07:13 57.205228 60.115769 0 0 0 0 1 delete
07:07:12 57.205236 60.115719 0 0 0 0 1 delete
07:07:11 57.205242 60.115670 0 0 0 0 1 delete
07:07:10 57.205251 60.115625 0 0 0 0 1 delete
07:07:09 57.205263 60.115579 0 0 0 0 1 delete
07:07:08 57.205275 60.115536 0 0 0 0 1 delete
07:07:07 57.205282 60.115492 0 0 0 0 1 delete
07:07:06 57.205279 60.115452 0 0 0 0 1 delete
07:07:05 57.205270 60.115412 0 0 0 0 1 delete
07:07:04 57.205260 60.115368 0 0 0 0 1 delete
07:07:03 57.205249 60.115319 0 0 0 0 1 delete
07:07:02 57.205239 60.115263 0 0 0 0 1 delete
07:07:01 57.205227 60.115203 0 0 0 0 1 delete
07:07:00 57.205216 60.115140 0 0 0 0 1 delete
07:06:59 57.205208 60.115078 0 0 0 0 1 delete
07:06:58 57.205199 60.115016 0 0 0 0 1 delete
07:06:57 57.205189 60.114957 0 0 0 0 1 delete
07:06:56 57.205177 60.114901 0 0 0 0 1 delete
07:06:55 57.205167 60.114848 0 0 0 0 1 delete
07:06:54 57.205158 60.114793 0 0 0 0 1 delete
07:06:53 57.205150 60.114739 0 0 0 0 1 delete
07:06:52 57.205142 60.114683 0 0 0 0 1 delete
07:06:51 57.205135 60.114624 0 0 0 0 1 delete
07:06:50 57.205128 60.114559 0 0 0 0 1 delete